sensor_id;sensor_type;location;lat;lon;timestamp;P1;durP1;ratioP1;P2;durP2;ratioP2
10831;SDS011;5469;48.574;8.768;2023-02-28T00:01:27;0.37;;;0.30;;
10831;SDS011;5469;48.574;8.768;2023-02-28T00:04:01;0.20;;;0.20;;
10831;SDS011;5469;48.574;8.768;2023-02-28T00:06:35;0.60;;;0.60;;
10831;SDS011;5469;48.574;8.768;2023-02-28T00:09:08;0.00;;;0.00;;
10831;SDS011;5469;48.574;8.768;2023-02-28T00:11:41;0.40;;;0.30;;
10831;SDS011;5469;48.574;8.768;2023-02-28T00:14:16;0.43;;;0.27;;
10831;SDS011;5469;48.574;8.768;2023-02-28T00:16:49;0.00;;;0.00;;
10831;SDS011;5469;48.574;8.768;2023-02-28T00:19:22;2.03;;;0.50;;
10831;SDS011;5469;48.574;8.768;2023-02-28T00:21:56;0.33;;;0.33;;
10831;SDS011;5469;48.574;8.768;2023-02-28T00:24:29;0.30;;;0.30;;
10831;SDS011;5469;48.574;8.768;2023-02-28T00:27:03;0.53;;;0.53;;
10831;SDS011;5469;48.574;8.768;2023-02-28T00:29:37;0.10;;;0.10;;
10831;SDS011;5469;48.574;8.768;2023-02-28T00:32:11;0.00;;;0.00;;
10831;SDS011;5469;48.574;8.768;2023-02-28T00:34:44;0.10;;;0.10;;
10831;SDS011;5469;48.574;8.768;2023-02-28T00:37:18;0.40;;;0.40;;
10831;SDS011;5469;48.574;8.768;2023-02-28T00:39:51;0.20;;;0.20;;
10831;SDS011;5469;48.574;8.768;2023-02-28T00:42:24;0.37;;;0.37;;
10831;SDS011;5469;48.574;8.768;2023-02-28T00:44:59;0.53;;;0.50;;
10831;SDS011;5469;48.574;8.768;2023-02-28T00:47:33;0.30;;;0.30;;
10831;SDS011;5469;48.574;8.768;2023-02-28T00:50:07;0.13;;;0.13;;
10831;SDS011;5469;48.574;8.768;2023-02-28T00:52:41;0.10;;;0.10;;
10831;SDS011;5469;48.574;8.768;2023-02-28T00:55:15;0.67;;;0.50;;
10831;SDS011;5469;48.574;8.768;2023-02-28T00:57:50;0.10;;;0.10;;
10831;SDS011;5469;48.574;8.768;2023-02-28T01:00:25;0.53;;;0.50;;
10831;SDS011;5469;48.574;8.768;2023-02-28T01:02:58;0.10;;;0.10;;
10831;SDS011;5469;48.574;8.768;2023-02-28T01:05:31;1.43;;;0.30;;
10831;SDS011;5469;48.574;8.768;2023-02-28T01:08:05;0.40;;;0.37;;
10831;SDS011;5469;48.574;8.768;2023-02-28T01:10:38;1.13;;;0.53;;
10831;SDS011;5469;48.574;8.768;2023-02-28T01:13:11;0.20;;;0.20;;
10831;SDS011;5469;48.574;8.768;2023-02-28T01:15:48;0.30;;;0.30;;
10831;SDS011;5469;48.574;8.768;2023-02-28T01:18:23;0.20;;;0.20;;
10831;SDS011;5469;48.574;8.768;2023-02-28T01:20:57;0.10;;;0.10;;
10831;SDS011;5469;48.574;8.768;2023-02-28T01:23:30;0.10;;;0.10;;
10831;SDS011;5469;48.574;8.768;2023-02-28T01:26:04;0.30;;;0.30;;
10831;SDS011;5469;48.574;8.768;2023-02-28T01:28:38;0.13;;;0.13;;
10831;SDS011;5469;48.574;8.768;2023-02-28T01:31:13;0.30;;;0.30;;
10831;SDS011;5469;48.574;8.768;2023-02-28T01:33:47;0.10;;;0.10;;
10831;SDS011;5469;48.574;8.768;2023-02-28T01:36:21;0.40;;;0.40;;
10831;SDS011;5469;48.574;8.768;2023-02-28T01:38:56;0.03;;;0.03;;
10831;SDS011;5469;48.574;8.768;2023-02-28T01:41:31;0.23;;;0.23;;
10831;SDS011;5469;48.574;8.768;2023-02-28T01:46:41;0.20;;;0.20;;
10831;SDS011;5469;48.574;8.768;2023-02-28T01:49:15;0.03;;;0.03;;
10831;SDS011;5469;48.574;8.768;2023-02-28T01:51:51;0.30;;;0.23;;
10831;SDS011;5469;48.574;8.768;2023-02-28T01:54:29;0.10;;;0.10;;
10831;SDS011;5469;48.574;8.768;2023-02-28T01:57:05;0.30;;;0.30;;
10831;SDS011;5469;48.574;8.768;2023-02-28T01:59:43;0.30;;;0.30;;
10831;SDS011;5469;48.574;8.768;2023-02-28T02:02:23;4.43;;;0.17;;
10831;SDS011;5469;48.574;8.768;2023-02-28T02:04:58;0.50;;;0.30;;
10831;SDS011;5469;48.574;8.768;2023-02-28T02:07:36;0.03;;;0.03;;
10831;SDS011;5469;48.574;8.768;2023-02-28T02:10:12;0.00;;;0.00;;
10831;SDS011;5469;48.574;8.768;2023-02-28T02:13:00;0.10;;;0.10;;
10831;SDS011;5469;48.574;8.768;2023-02-28T02:15:46;0.30;;;0.27;;
10831;SDS011;5469;48.574;8.768;2023-02-28T02:18:30;1.20;;;0.60;;
10831;SDS011;5469;48.574;8.768;2023-02-28T02:24:25;0.10;;;0.10;;
10831;SDS011;5469;48.574;8.768;2023-02-28T02:27:23;0.00;;;0.00;;
10831;SDS011;5469;48.574;8.768;2023-02-28T02:30:08;0.30;;;0.30;;
10831;SDS011;5469;48.574;8.768;2023-02-28T02:36:11;0.50;;;0.50;;
10831;SDS011;5469;48.574;8.768;2023-02-28T02:38:47;0.93;;;0.67;;
10831;SDS011;5469;48.574;8.768;2023-02-28T02:41:27;0.17;;;0.17;;
10831;SDS011;5469;48.574;8.768;2023-02-28T02:44:10;0.40;;;0.40;;
10831;SDS011;5469;48.574;8.768;2023-02-28T02:46:48;0.10;;;0.10;;
10831;SDS011;5469;48.574;8.768;2023-02-28T02:49:25;0.40;;;0.40;;
10831;SDS011;5469;48.574;8.768;2023-02-28T02:52:06;1.93;;;0.93;;
10831;SDS011;5469;48.574;8.768;2023-02-28T02:54:43;0.90;;;0.80;;
10831;SDS011;5469;48.574;8.768;2023-02-28T02:57:20;0.20;;;0.20;;
10831;SDS011;5469;48.574;8.768;2023-02-28T02:59:56;0.33;;;0.33;;
10831;SDS011;5469;48.574;8.768;2023-02-28T03:02:32;0.10;;;0.10;;
10831;SDS011;5469;48.574;8.768;2023-02-28T03:05:08;0.10;;;0.10;;
10831;SDS011;5469;48.574;8.768;2023-02-28T03:07:49;0.50;;;0.50;;
10831;SDS011;5469;48.574;8.768;2023-02-28T03:10:27;0.63;;;0.63;;
10831;SDS011;5469;48.574;8.768;2023-02-28T03:13:11;0.83;;;0.40;;
10831;SDS011;5469;48.574;8.768;2023-02-28T03:15:55;0.17;;;0.17;;
10831;SDS011;5469;48.574;8.768;2023-02-28T03:18:39;0.30;;;0.30;;
10831;SDS011;5469;48.574;8.768;2023-02-28T03:21:18;0.47;;;0.47;;
10831;SDS011;5469;48.574;8.768;2023-02-28T03:23:58;0.20;;;0.20;;
10831;SDS011;5469;48.574;8.768;2023-02-28T03:26:40;0.00;;;0.00;;
10831;SDS011;5469;48.574;8.768;2023-02-28T03:29:18;0.30;;;0.30;;
10831;SDS011;5469;48.574;8.768;2023-02-28T03:31:58;1.00;;;0.90;;
10831;SDS011;5469;48.574;8.768;2023-02-28T03:34:37;0.00;;;0.00;;
10831;SDS011;5469;48.574;8.768;2023-02-28T03:37:14;0.13;;;0.13;;
10831;SDS011;5469;48.574;8.768;2023-02-28T03:39:53;0.37;;;0.20;;
10831;SDS011;5469;48.574;8.768;2023-02-28T03:42:31;0.20;;;0.20;;
10831;SDS011;5469;48.574;8.768;2023-02-28T03:45:10;0.30;;;0.30;;
10831;SDS011;5469;48.574;8.768;2023-02-28T03:47:48;0.97;;;0.27;;
10831;SDS011;5469;48.574;8.768;2023-02-28T03:50:25;0.30;;;0.30;;
10831;SDS011;5469;48.574;8.768;2023-02-28T03:53:08;0.20;;;0.20;;
10831;SDS011;5469;48.574;8.768;2023-02-28T03:55:48;8.07;;;0.50;;
10831;SDS011;5469;48.574;8.768;2023-02-28T03:58:26;0.20;;;0.20;;
10831;SDS011;5469;48.574;8.768;2023-02-28T04:01:03;0.13;;;0.13;;
10831;SDS011;5469;48.574;8.768;2023-02-28T04:03:42;0.40;;;0.40;;
10831;SDS011;5469;48.574;8.768;2023-02-28T04:06:16;0.10;;;0.10;;
10831;SDS011;5469;48.574;8.768;2023-02-28T04:08:52;0.40;;;0.30;;
10831;SDS011;5469;48.574;8.768;2023-02-28T04:11:27;2.63;;;2.43;;
10831;SDS011;5469;48.574;8.768;2023-02-28T04:14:07;0.57;;;0.50;;
10831;SDS011;5469;48.574;8.768;2023-02-28T04:16:41;0.10;;;0.10;;
10831;SDS011;5469;48.574;8.768;2023-02-28T04:19:15;0.00;;;0.00;;
10831;SDS011;5469;48.574;8.768;2023-02-28T04:21:49;0.13;;;0.13;;
10831;SDS011;5469;48.574;8.768;2023-02-28T04:24:24;0.10;;;0.10;;
10831;SDS011;5469;48.574;8.768;2023-02-28T04:27:00;0.30;;;0.30;;
10831;SDS011;5469;48.574;8.768;2023-02-28T04:29:34;0.10;;;0.10;;
10831;SDS011;5469;48.574;8.768;2023-02-28T04:32:07;0.67;;;0.53;;
10831;SDS011;5469;48.574;8.768;2023-02-28T04:34:40;0.60;;;0.60;;
10831;SDS011;5469;48.574;8.768;2023-02-28T04:37:14;1.23;;;0.40;;
10831;SDS011;5469;48.574;8.768;2023-02-28T04:39:47;0.90;;;0.60;;
10831;SDS011;5469;48.574;8.768;2023-02-28T04:42:22;0.10;;;0.10;;
10831;SDS011;5469;48.574;8.768;2023-02-28T04:44:55;0.30;;;0.30;;
10831;SDS011;5469;48.574;8.768;2023-02-28T04:47:28;0.30;;;0.30;;
10831;SDS011;5469;48.574;8.768;2023-02-28T04:50:02;0.23;;;0.23;;
10831;SDS011;5469;48.574;8.768;2023-02-28T04:52:37;0.43;;;0.23;;
10831;SDS011;5469;48.574;8.768;2023-02-28T04:55:12;0.60;;;0.60;;
10831;SDS011;5469;48.574;8.768;2023-02-28T04:57:49;0.20;;;0.20;;
10831;SDS011;5469;48.574;8.768;2023-02-28T05:00:25;6.03;;;1.13;;
10831;SDS011;5469;48.574;8.768;2023-02-28T05:03:00;0.83;;;0.67;;
10831;SDS011;5469;48.574;8.768;2023-02-28T05:05:35;0.10;;;0.10;;
10831;SDS011;5469;48.574;8.768;2023-02-28T05:08:10;0.30;;;0.30;;
10831;SDS011;5469;48.574;8.768;2023-02-28T05:10:44;0.83;;;0.33;;
10831;SDS011;5469;48.574;8.768;2023-02-28T05:13:21;0.10;;;0.10;;
10831;SDS011;5469;48.574;8.768;2023-02-28T05:15:56;0.60;;;0.60;;
10831;SDS011;5469;48.574;8.768;2023-02-28T05:18:31;0.43;;;0.43;;
10831;SDS011;5469;48.574;8.768;2023-02-28T05:21:12;0.57;;;0.57;;
10831;SDS011;5469;48.574;8.768;2023-02-28T05:24:00;0.43;;;0.40;;
10831;SDS011;5469;48.574;8.768;2023-02-28T05:26:37;1.23;;;0.70;;
10831;SDS011;5469;48.574;8.768;2023-02-28T05:29:15;0.10;;;0.10;;
10831;SDS011;5469;48.574;8.768;2023-02-28T05:31:50;0.47;;;0.47;;
10831;SDS011;5469;48.574;8.768;2023-02-28T05:34:26;0.90;;;0.90;;
10831;SDS011;5469;48.574;8.768;2023-02-28T05:37:02;1.87;;;1.77;;
10831;SDS011;5469;48.574;8.768;2023-02-28T05:39:37;0.57;;;0.57;;
10831;SDS011;5469;48.574;8.768;2023-02-28T05:42:12;0.50;;;0.50;;
10831;SDS011;5469;48.574;8.768;2023-02-28T05:44:49;0.60;;;0.60;;
10831;SDS011;5469;48.574;8.768;2023-02-28T05:47:24;0.80;;;0.80;;
10831;SDS011;5469;48.574;8.768;2023-02-28T05:50:00;2.13;;;1.43;;
10831;SDS011;5469;48.574;8.768;2023-02-28T05:52:35;1.20;;;1.10;;
10831;SDS011;5469;48.574;8.768;2023-02-28T05:55:10;1.33;;;1.23;;
10831;SDS011;5469;48.574;8.768;2023-02-28T05:57:46;0.70;;;0.70;;
10831;SDS011;5469;48.574;8.768;2023-02-28T06:00:23;0.50;;;0.50;;
10831;SDS011;5469;48.574;8.768;2023-02-28T06:02:58;0.63;;;0.63;;
10831;SDS011;5469;48.574;8.768;2023-02-28T06:05:33;1.37;;;1.37;;
10831;SDS011;5469;48.574;8.768;2023-02-28T06:08:10;0.80;;;0.80;;
10831;SDS011;5469;48.574;8.768;2023-02-28T06:10:45;0.80;;;0.50;;
10831;SDS011;5469;48.574;8.768;2023-02-28T06:13:20;1.27;;;1.27;;
10831;SDS011;5469;48.574;8.768;2023-02-28T06:15:56;0.60;;;0.60;;
10831;SDS011;5469;48.574;8.768;2023-02-28T06:18:33;0.30;;;0.30;;
10831;SDS011;5469;48.574;8.768;2023-02-28T06:21:10;0.70;;;0.70;;
10831;SDS011;5469;48.574;8.768;2023-02-28T06:23:46;0.57;;;0.50;;
10831;SDS011;5469;48.574;8.768;2023-02-28T06:26:21;0.37;;;0.37;;
10831;SDS011;5469;48.574;8.768;2023-02-28T06:28:56;0.90;;;0.90;;
10831;SDS011;5469;48.574;8.768;2023-02-28T06:31:34;0.23;;;0.23;;
10831;SDS011;5469;48.574;8.768;2023-02-28T06:34:10;0.70;;;0.70;;
10831;SDS011;5469;48.574;8.768;2023-02-28T06:36:46;2.27;;;0.40;;
10831;SDS011;5469;48.574;8.768;2023-02-28T06:39:23;1.97;;;0.60;;
10831;SDS011;5469;48.574;8.768;2023-02-28T06:41:58;0.30;;;0.30;;
10831;SDS011;5469;48.574;8.768;2023-02-28T06:44:33;0.93;;;0.93;;
10831;SDS011;5469;48.574;8.768;2023-02-28T06:47:10;0.67;;;0.67;;
10831;SDS011;5469;48.574;8.768;2023-02-28T06:49:45;0.20;;;0.20;;
10831;SDS011;5469;48.574;8.768;2023-02-28T06:52:20;0.50;;;0.50;;
10831;SDS011;5469;48.574;8.768;2023-02-28T06:54:55;0.47;;;0.47;;
10831;SDS011;5469;48.574;8.768;2023-02-28T06:57:32;0.67;;;0.67;;
10831;SDS011;5469;48.574;8.768;2023-02-28T07:00:10;0.37;;;0.23;;
10831;SDS011;5469;48.574;8.768;2023-02-28T07:02:48;0.50;;;0.50;;
10831;SDS011;5469;48.574;8.768;2023-02-28T07:05:25;0.80;;;0.80;;
10831;SDS011;5469;48.574;8.768;2023-02-28T07:08:00;0.40;;;0.40;;
10831;SDS011;5469;48.574;8.768;2023-02-28T07:10:38;2.67;;;0.80;;
10831;SDS011;5469;48.574;8.768;2023-02-28T07:13:16;0.20;;;0.20;;
10831;SDS011;5469;48.574;8.768;2023-02-28T07:15:55;1.27;;;1.00;;
10831;SDS011;5469;48.574;8.768;2023-02-28T07:18:33;1.67;;;0.70;;
10831;SDS011;5469;48.574;8.768;2023-02-28T07:21:10;0.53;;;0.53;;
10831;SDS011;5469;48.574;8.768;2023-02-28T07:23:46;0.50;;;0.50;;
10831;SDS011;5469;48.574;8.768;2023-02-28T07:26:21;0.40;;;0.40;;
10831;SDS011;5469;48.574;8.768;2023-02-28T07:28:56;3.40;;;0.30;;
10831;SDS011;5469;48.574;8.768;2023-02-28T07:31:31;0.90;;;0.73;;
10831;SDS011;5469;48.574;8.768;2023-02-28T07:34:08;0.70;;;0.70;;
10831;SDS011;5469;48.574;8.768;2023-02-28T07:36:43;0.73;;;0.57;;
10831;SDS011;5469;48.574;8.768;2023-02-28T07:39:18;0.43;;;0.43;;
10831;SDS011;5469;48.574;8.768;2023-02-28T07:41:53;4.10;;;2.07;;
10831;SDS011;5469;48.574;8.768;2023-02-28T07:44:29;0.60;;;0.60;;
10831;SDS011;5469;48.574;8.768;2023-02-28T07:47:05;0.83;;;0.73;;
10831;SDS011;5469;48.574;8.768;2023-02-28T07:49:42;0.67;;;0.67;;
10831;SDS011;5469;48.574;8.768;2023-02-28T07:52:18;0.87;;;0.87;;
10831;SDS011;5469;48.574;8.768;2023-02-28T07:54:55;0.73;;;0.73;;
10831;SDS011;5469;48.574;8.768;2023-02-28T07:57:30;1.20;;;1.20;;
10831;SDS011;5469;48.574;8.768;2023-02-28T08:00:05;1.80;;;1.10;;
10831;SDS011;5469;48.574;8.768;2023-02-28T08:02:44;0.77;;;0.53;;
10831;SDS011;5469;48.574;8.768;2023-02-28T08:05:20;1.67;;;1.23;;
10831;SDS011;5469;48.574;8.768;2023-02-28T08:07:55;0.73;;;0.73;;
10831;SDS011;5469;48.574;8.768;2023-02-28T08:10:30;0.90;;;0.63;;
10831;SDS011;5469;48.574;8.768;2023-02-28T08:13:06;1.03;;;0.50;;
10831;SDS011;5469;48.574;8.768;2023-02-28T08:15:42;0.60;;;0.60;;
10831;SDS011;5469;48.574;8.768;2023-02-28T08:18:19;2.13;;;0.53;;
10831;SDS011;5469;48.574;8.768;2023-02-28T08:20:56;0.63;;;0.63;;
10831;SDS011;5469;48.574;8.768;2023-02-28T08:23:31;4.17;;;0.80;;
10831;SDS011;5469;48.574;8.768;2023-02-28T08:26:06;0.47;;;0.47;;
10831;SDS011;5469;48.574;8.768;2023-02-28T08:28:42;0.67;;;0.60;;
10831;SDS011;5469;48.574;8.768;2023-02-28T08:31:17;0.23;;;0.23;;
10831;SDS011;5469;48.574;8.768;2023-02-28T08:33:54;3.30;;;1.33;;
10831;SDS011;5469;48.574;8.768;2023-02-28T08:36:32;0.90;;;0.90;;
10831;SDS011;5469;48.574;8.768;2023-02-28T08:39:07;2.20;;;0.70;;
10831;SDS011;5469;48.574;8.768;2023-02-28T08:41:42;0.77;;;0.73;;
10831;SDS011;5469;48.574;8.768;2023-02-28T08:44:18;0.90;;;0.70;;
10831;SDS011;5469;48.574;8.768;2023-02-28T08:46:53;2.10;;;1.80;;
10831;SDS011;5469;48.574;8.768;2023-02-28T08:49:30;0.60;;;0.60;;
10831;SDS011;5469;48.574;8.768;2023-02-28T08:52:07;0.63;;;0.43;;
10831;SDS011;5469;48.574;8.768;2023-02-28T08:54:42;0.67;;;0.30;;
10831;SDS011;5469;48.574;8.768;2023-02-28T08:57:17;0.90;;;0.90;;
10831;SDS011;5469;48.574;8.768;2023-02-28T08:59:52;1.67;;;1.30;;
10831;SDS011;5469;48.574;8.768;2023-02-28T09:02:28;0.43;;;0.43;;
10831;SDS011;5469;48.574;8.768;2023-02-28T09:05:04;0.83;;;0.83;;
10831;SDS011;5469;48.574;8.768;2023-02-28T09:07:42;0.87;;;0.80;;
10831;SDS011;5469;48.574;8.768;2023-02-28T09:10:17;1.17;;;0.33;;
10831;SDS011;5469;48.574;8.768;2023-02-28T09:12:53;0.57;;;0.43;;
10831;SDS011;5469;48.574;8.768;2023-02-28T09:15:28;0.57;;;0.50;;
10831;SDS011;5469;48.574;8.768;2023-02-28T09:18:03;0.60;;;0.60;;
10831;SDS011;5469;48.574;8.768;2023-02-28T09:20:38;1.27;;;0.97;;
10831;SDS011;5469;48.574;8.768;2023-02-28T09:23:14;0.70;;;0.70;;
10831;SDS011;5469;48.574;8.768;2023-02-28T09:25:52;0.90;;;0.83;;
10831;SDS011;5469;48.574;8.768;2023-02-28T09:28:28;5.20;;;1.43;;
10831;SDS011;5469;48.574;8.768;2023-02-28T09:31:04;1.10;;;1.00;;
10831;SDS011;5469;48.574;8.768;2023-02-28T09:33:39;0.33;;;0.33;;
10831;SDS011;5469;48.574;8.768;2023-02-28T09:36:14;1.13;;;1.03;;
10831;SDS011;5469;48.574;8.768;2023-02-28T09:38:51;0.50;;;0.50;;
10831;SDS011;5469;48.574;8.768;2023-02-28T09:41:26;0.70;;;0.70;;
10831;SDS011;5469;48.574;8.768;2023-02-28T09:44:07;0.73;;;0.73;;
10831;SDS011;5469;48.574;8.768;2023-02-28T09:46:47;0.83;;;0.80;;
10831;SDS011;5469;48.574;8.768;2023-02-28T09:49:31;0.23;;;0.23;;
10831;SDS011;5469;48.574;8.768;2023-02-28T09:52:12;1.67;;;1.57;;
10831;SDS011;5469;48.574;8.768;2023-02-28T09:54:52;1.13;;;1.03;;
10831;SDS011;5469;48.574;8.768;2023-02-28T09:57:29;0.47;;;0.47;;
10831;SDS011;5469;48.574;8.768;2023-02-28T10:00:12;0.80;;;0.60;;
10831;SDS011;5469;48.574;8.768;2023-02-28T10:02:53;0.93;;;0.93;;
10831;SDS011;5469;48.574;8.768;2023-02-28T10:05:37;3.63;;;1.40;;
10831;SDS011;5469;48.574;8.768;2023-02-28T10:08:16;0.57;;;0.50;;
10831;SDS011;5469;48.574;8.768;2023-02-28T10:10:59;1.07;;;0.67;;
10831;SDS011;5469;48.574;8.768;2023-02-28T10:13:41;0.90;;;0.90;;
10831;SDS011;5469;48.574;8.768;2023-02-28T10:16:25;0.53;;;0.47;;
10831;SDS011;5469;48.574;8.768;2023-02-28T10:19:04;1.10;;;1.00;;
10831;SDS011;5469;48.574;8.768;2023-02-28T10:21:47;0.83;;;0.47;;
10831;SDS011;5469;48.574;8.768;2023-02-28T10:24:28;1.97;;;0.77;;
10831;SDS011;5469;48.574;8.768;2023-02-28T10:27:13;1.23;;;0.90;;
10831;SDS011;5469;48.574;8.768;2023-02-28T10:29:52;1.43;;;0.87;;
10831;SDS011;5469;48.574;8.768;2023-02-28T10:32:29;0.70;;;0.70;;
10831;SDS011;5469;48.574;8.768;2023-02-28T10:35:10;0.30;;;0.30;;
10831;SDS011;5469;48.574;8.768;2023-02-28T10:37:50;0.50;;;0.50;;
10831;SDS011;5469;48.574;8.768;2023-02-28T10:40:29;1.63;;;1.30;;
10831;SDS011;5469;48.574;8.768;2023-02-28T10:43:18;1.07;;;0.83;;
10831;SDS011;5469;48.574;8.768;2023-02-28T10:45:55;1.00;;;0.90;;
10831;SDS011;5469;48.574;8.768;2023-02-28T10:48:36;2.33;;;1.63;;
10831;SDS011;5469;48.574;8.768;2023-02-28T10:51:15;1.27;;;0.93;;
10831;SDS011;5469;48.574;8.768;2023-02-28T10:53:52;0.87;;;0.63;;
10831;SDS011;5469;48.574;8.768;2023-02-28T10:56:29;1.37;;;0.70;;
10831;SDS011;5469;48.574;8.768;2023-02-28T10:59:20;0.70;;;0.70;;
10831;SDS011;5469;48.574;8.768;2023-02-28T11:02:00;1.37;;;0.73;;
10831;SDS011;5469;48.574;8.768;2023-02-28T11:04:35;0.80;;;0.80;;
10831;SDS011;5469;48.574;8.768;2023-02-28T11:07:16;0.30;;;0.30;;
10831;SDS011;5469;48.574;8.768;2023-02-28T11:09:53;1.30;;;0.93;;
10831;SDS011;5469;48.574;8.768;2023-02-28T11:12:32;1.40;;;1.10;;
10831;SDS011;5469;48.574;8.768;2023-02-28T11:15:21;2.30;;;0.73;;
10831;SDS011;5469;48.574;8.768;2023-02-28T11:17:59;1.40;;;1.20;;
10831;SDS011;5469;48.574;8.768;2023-02-28T11:20:47;1.20;;;1.20;;
10831;SDS011;5469;48.574;8.768;2023-02-28T11:23:26;2.10;;;1.10;;
10831;SDS011;5469;48.574;8.768;2023-02-28T11:26:03;1.50;;;1.13;;
10831;SDS011;5469;48.574;8.768;2023-02-28T11:28:41;2.67;;;1.60;;
10831;SDS011;5469;48.574;8.768;2023-02-28T11:31:18;2.00;;;1.07;;
10831;SDS011;5469;48.574;8.768;2023-02-28T11:33:54;2.13;;;2.03;;
10831;SDS011;5469;48.574;8.768;2023-02-28T11:36:30;1.13;;;1.03;;
10831;SDS011;5469;48.574;8.768;2023-02-28T11:39:09;1.37;;;1.00;;
10831;SDS011;5469;48.574;8.768;2023-02-28T11:41:59;1.37;;;1.27;;
10831;SDS011;5469;48.574;8.768;2023-02-28T11:44:54;1.80;;;1.13;;
10831;SDS011;5469;48.574;8.768;2023-02-28T11:47:44;0.83;;;0.83;;
10831;SDS011;5469;48.574;8.768;2023-02-28T11:50:25;1.57;;;1.40;;
10831;SDS011;5469;48.574;8.768;2023-02-28T11:53:14;0.93;;;0.90;;
10831;SDS011;5469;48.574;8.768;2023-02-28T11:55:56;1.23;;;0.83;;
10831;SDS011;5469;48.574;8.768;2023-02-28T11:58:42;1.20;;;1.07;;
10831;SDS011;5469;48.574;8.768;2023-02-28T12:01:27;1.47;;;1.03;;
10831;SDS011;5469;48.574;8.768;2023-02-28T12:04:15;2.27;;;1.10;;
10831;SDS011;5469;48.574;8.768;2023-02-28T12:06:58;1.30;;;1.20;;
10831;SDS011;5469;48.574;8.768;2023-02-28T12:09:44;0.90;;;0.90;;
10831;SDS011;5469;48.574;8.768;2023-02-28T12:12:30;2.20;;;1.20;;
10831;SDS011;5469;48.574;8.768;2023-02-28T12:15:16;1.93;;;0.73;;
10831;SDS011;5469;48.574;8.768;2023-02-28T12:18:04;2.30;;;1.13;;
10831;SDS011;5469;48.574;8.768;2023-02-28T12:20:51;0.93;;;0.93;;
10831;SDS011;5469;48.574;8.768;2023-02-28T12:26:40;1.90;;;0.90;;
10831;SDS011;5469;48.574;8.768;2023-02-28T12:29:19;0.67;;;0.40;;
10831;SDS011;5469;48.574;8.768;2023-02-28T12:31:59;1.53;;;0.80;;
10831;SDS011;5469;48.574;8.768;2023-02-28T12:34:42;1.17;;;1.10;;
10831;SDS011;5469;48.574;8.768;2023-02-28T12:37:24;1.03;;;0.93;;
10831;SDS011;5469;48.574;8.768;2023-02-28T12:40:05;1.70;;;0.73;;
10831;SDS011;5469;48.574;8.768;2023-02-28T12:42:44;1.33;;;1.10;;
10831;SDS011;5469;48.574;8.768;2023-02-28T12:45:24;2.60;;;1.90;;
10831;SDS011;5469;48.574;8.768;2023-02-28T12:48:05;4.57;;;1.57;;
10831;SDS011;5469;48.574;8.768;2023-02-28T12:50:46;2.47;;;1.63;;
10831;SDS011;5469;48.574;8.768;2023-02-28T12:53:25;1.60;;;1.47;;
10831;SDS011;5469;48.574;8.768;2023-02-28T12:56:09;2.03;;;1.50;;
10831;SDS011;5469;48.574;8.768;2023-02-28T12:58:54;4.07;;;0.60;;
10831;SDS011;5469;48.574;8.768;2023-02-28T13:01:42;4.07;;;1.53;;
10831;SDS011;5469;48.574;8.768;2023-02-28T13:10:39;1.87;;;1.20;;
10831;SDS011;5469;48.574;8.768;2023-02-28T13:13:15;0.60;;;0.60;;
10831;SDS011;5469;48.574;8.768;2023-02-28T13:16:00;1.13;;;1.07;;
10831;SDS011;5469;48.574;8.768;2023-02-28T13:18:36;1.10;;;1.00;;
10831;SDS011;5469;48.574;8.768;2023-02-28T13:21:21;1.40;;;1.20;;
10831;SDS011;5469;48.574;8.768;2023-02-28T13:24:00;0.67;;;0.67;;
10831;SDS011;5469;48.574;8.768;2023-02-28T13:30:01;0.90;;;0.90;;
10831;SDS011;5469;48.574;8.768;2023-02-28T13:33:27;1.80;;;1.17;;
10831;SDS011;5469;48.574;8.768;2023-02-28T13:36:25;2.50;;;1.47;;
10831;SDS011;5469;48.574;8.768;2023-02-28T13:39:03;1.97;;;1.53;;
10831;SDS011;5469;48.574;8.768;2023-02-28T13:42:34;3.57;;;1.97;;
10831;SDS011;5469;48.574;8.768;2023-02-28T13:45:22;2.10;;;1.07;;
10831;SDS011;5469;48.574;8.768;2023-02-28T13:48:02;1.10;;;1.03;;
10831;SDS011;5469;48.574;8.768;2023-02-28T13:50:49;1.30;;;1.20;;
10831;SDS011;5469;48.574;8.768;2023-02-28T13:56:27;1.87;;;0.93;;
10831;SDS011;5469;48.574;8.768;2023-02-28T13:59:13;2.47;;;1.07;;
10831;SDS011;5469;48.574;8.768;2023-02-28T14:01:58;1.43;;;1.03;;
10831;SDS011;5469;48.574;8.768;2023-02-28T14:04:54;1.67;;;1.40;;
10831;SDS011;5469;48.574;8.768;2023-02-28T14:07:36;1.43;;;1.33;;
10831;SDS011;5469;48.574;8.768;2023-02-28T14:10:21;1.70;;;1.33;;
10831;SDS011;5469;48.574;8.768;2023-02-28T14:13:01;2.10;;;1.33;;
10831;SDS011;5469;48.574;8.768;2023-02-28T14:15:49;6.77;;;2.00;;
10831;SDS011;5469;48.574;8.768;2023-02-28T14:18:30;1.73;;;1.63;;
10831;SDS011;5469;48.574;8.768;2023-02-28T14:21:11;1.33;;;1.17;;
10831;SDS011;5469;48.574;8.768;2023-02-28T14:27:08;1.53;;;1.17;;
10831;SDS011;5469;48.574;8.768;2023-02-28T14:32:50;4.93;;;1.47;;
10831;SDS011;5469;48.574;8.768;2023-02-28T14:35:39;2.57;;;1.60;;
10831;SDS011;5469;48.574;8.768;2023-02-28T14:38:20;3.73;;;2.50;;
10831;SDS011;5469;48.574;8.768;2023-02-28T14:41:02;1.60;;;1.47;;
10831;SDS011;5469;48.574;8.768;2023-02-28T14:43:52;1.83;;;1.67;;
10831;SDS011;5469;48.574;8.768;2023-02-28T14:46:35;3.77;;;2.50;;
10831;SDS011;5469;48.574;8.768;2023-02-28T14:49:16;2.37;;;2.17;;
10831;SDS011;5469;48.574;8.768;2023-02-28T14:52:01;2.67;;;2.27;;
10831;SDS011;5469;48.574;8.768;2023-02-28T14:54:41;3.13;;;2.83;;
10831;SDS011;5469;48.574;8.768;2023-02-28T14:57:22;3.67;;;2.40;;
10831;SDS011;5469;48.574;8.768;2023-02-28T14:59:59;1.60;;;1.50;;
10831;SDS011;5469;48.574;8.768;2023-02-28T15:02:38;2.43;;;1.97;;
10831;SDS011;5469;48.574;8.768;2023-02-28T15:05:26;2.30;;;1.83;;
10831;SDS011;5469;48.574;8.768;2023-02-28T15:08:09;1.50;;;1.23;;
10831;SDS011;5469;48.574;8.768;2023-02-28T15:10:50;2.83;;;1.67;;
10831;SDS011;5469;48.574;8.768;2023-02-28T15:13:33;2.03;;;1.70;;
10831;SDS011;5469;48.574;8.768;2023-02-28T15:16:13;3.93;;;2.20;;
10831;SDS011;5469;48.574;8.768;2023-02-28T15:18:54;2.63;;;2.33;;
10831;SDS011;5469;48.574;8.768;2023-02-28T15:21:34;2.00;;;1.80;;
10831;SDS011;5469;48.574;8.768;2023-02-28T15:24:13;3.37;;;2.47;;
10831;SDS011;5469;48.574;8.768;2023-02-28T15:26:56;3.13;;;1.97;;
10831;SDS011;5469;48.574;8.768;2023-02-28T15:29:37;8.23;;;2.60;;
10831;SDS011;5469;48.574;8.768;2023-02-28T15:32:23;2.17;;;1.97;;
10831;SDS011;5469;48.574;8.768;2023-02-28T15:37:52;6.10;;;2.60;;
10831;SDS011;5469;48.574;8.768;2023-02-28T15:40:30;4.33;;;2.40;;
10831;SDS011;5469;48.574;8.768;2023-02-28T15:43:13;2.27;;;2.07;;
10831;SDS011;5469;48.574;8.768;2023-02-28T15:45:52;3.87;;;2.30;;
10831;SDS011;5469;48.574;8.768;2023-02-28T15:48:29;3.80;;;2.27;;
10831;SDS011;5469;48.574;8.768;2023-02-28T15:51:08;3.27;;;2.70;;
10831;SDS011;5469;48.574;8.768;2023-02-28T15:53:50;2.00;;;1.83;;
10831;SDS011;5469;48.574;8.768;2023-02-28T15:56:29;3.27;;;1.93;;
10831;SDS011;5469;48.574;8.768;2023-02-28T15:59:07;2.37;;;2.17;;
10831;SDS011;5469;48.574;8.768;2023-02-28T16:01:52;2.97;;;1.80;;
10831;SDS011;5469;48.574;8.768;2023-02-28T16:04:37;4.17;;;2.47;;
10831;SDS011;5469;48.574;8.768;2023-02-28T16:07:27;2.00;;;1.80;;
10831;SDS011;5469;48.574;8.768;2023-02-28T16:10:02;5.10;;;2.67;;
10831;SDS011;5469;48.574;8.768;2023-02-28T16:12:39;2.30;;;1.77;;
10831;SDS011;5469;48.574;8.768;2023-02-28T16:15:17;3.63;;;2.17;;
10831;SDS011;5469;48.574;8.768;2023-02-28T16:17:57;2.13;;;1.93;;
10831;SDS011;5469;48.574;8.768;2023-02-28T16:20:32;1.87;;;1.43;;
10831;SDS011;5469;48.574;8.768;2023-02-28T16:23:07;3.10;;;2.13;;
10831;SDS011;5469;48.574;8.768;2023-02-28T16:25:43;4.30;;;2.17;;
10831;SDS011;5469;48.574;8.768;2023-02-28T16:28:19;3.27;;;2.27;;
10831;SDS011;5469;48.574;8.768;2023-02-28T16:30:58;2.70;;;2.20;;
10831;SDS011;5469;48.574;8.768;2023-02-28T16:33:36;1.80;;;1.33;;
10831;SDS011;5469;48.574;8.768;2023-02-28T16:36:16;3.30;;;2.00;;
10831;SDS011;5469;48.574;8.768;2023-02-28T16:38:52;3.30;;;2.00;;
10831;SDS011;5469;48.574;8.768;2023-02-28T16:41:28;1.60;;;1.40;;
10831;SDS011;5469;48.574;8.768;2023-02-28T16:44:07;3.03;;;2.33;;